sensor_id;sensor_type;location;lat;lon;timestamp;P1;durP1;ratioP1;P2;durP2;ratioP2
10335;SDS011;5213;53.548;9.930;2022-10-17T00:00:46;7.25;;;4.97;;
10335;SDS011;5213;53.548;9.930;2022-10-17T00:03:12;13.30;;;5.20;;
10335;SDS011;5213;53.548;9.930;2022-10-17T00:05:39;7.57;;;4.85;;
10335;SDS011;5213;53.548;9.930;2022-10-17T00:08:05;9.52;;;4.88;;
10335;SDS011;5213;53.548;9.930;2022-10-17T00:10:31;11.23;;;5.20;;
10335;SDS011;5213;53.548;9.930;2022-10-17T00:12:57;7.47;;;4.93;;
10335;SDS011;5213;53.548;9.930;2022-10-17T00:15:23;6.05;;;4.65;;
10335;SDS011;5213;53.548;9.930;2022-10-17T00:17:49;10.52;;;5.22;;
10335;SDS011;5213;53.548;9.930;2022-10-17T00:20:15;11.80;;;4.72;;
10335;SDS011;5213;53.548;9.930;2022-10-17T00:22:41;6.68;;;4.45;;
10335;SDS011;5213;53.548;9.930;2022-10-17T00:25:07;8.10;;;4.50;;
10335;SDS011;5213;53.548;9.930;2022-10-17T00:27:37;7.13;;;4.38;;
10335;SDS011;5213;53.548;9.930;2022-10-17T00:30:04;11.27;;;4.70;;
10335;SDS011;5213;53.548;9.930;2022-10-17T00:32:30;8.52;;;4.30;;
10335;SDS011;5213;53.548;9.930;2022-10-17T00:34:56;6.00;;;4.22;;
10335;SDS011;5213;53.548;9.930;2022-10-17T00:37:22;8.05;;;4.05;;
10335;SDS011;5213;53.548;9.930;2022-10-17T00:39:48;7.32;;;4.00;;
10335;SDS011;5213;53.548;9.930;2022-10-17T00:42:15;6.70;;;4.57;;
10335;SDS011;5213;53.548;9.930;2022-10-17T00:47:11;7.55;;;4.07;;
10335;SDS011;5213;53.548;9.930;2022-10-17T00:49:38;5.50;;;4.70;;
10335;SDS011;5213;53.548;9.930;2022-10-17T00:52:07;6.63;;;4.50;;
10335;SDS011;5213;53.548;9.930;2022-10-17T00:54:34;5.10;;;4.28;;
10335;SDS011;5213;53.548;9.930;2022-10-17T00:57:01;5.38;;;4.35;;
10335;SDS011;5213;53.548;9.930;2022-10-17T00:59:27;5.45;;;4.30;;
10335;SDS011;5213;53.548;9.930;2022-10-17T01:02:00;6.80;;;4.13;;
10335;SDS011;5213;53.548;9.930;2022-10-17T01:04:27;6.18;;;4.20;;
10335;SDS011;5213;53.548;9.930;2022-10-17T01:06:53;4.55;;;3.97;;
10335;SDS011;5213;53.548;9.930;2022-10-17T01:09:19;10.70;;;4.28;;
10335;SDS011;5213;53.548;9.930;2022-10-17T01:19:40;4.63;;;4.20;;
10335;SDS011;5213;53.548;9.930;2022-10-17T01:22:21;5.35;;;4.43;;
10335;SDS011;5213;53.548;9.930;2022-10-17T01:33:26;7.95;;;4.60;;
10335;SDS011;5213;53.548;9.930;2022-10-17T01:35:40;6.93;;;4.68;;
10335;SDS011;5213;53.548;9.930;2022-10-17T01:43:06;6.07;;;4.28;;
10335;SDS011;5213;53.548;9.930;2022-10-17T01:48:06;6.32;;;4.20;;
10335;SDS011;5213;53.548;9.930;2022-10-17T01:50:34;6.15;;;4.30;;
10335;SDS011;5213;53.548;9.930;2022-10-17T01:53:02;8.98;;;4.10;;
10335;SDS011;5213;53.548;9.930;2022-10-17T01:55:30;4.47;;;3.50;;
10335;SDS011;5213;53.548;9.930;2022-10-17T01:58:08;5.03;;;4.03;;
10335;SDS011;5213;53.548;9.930;2022-10-17T02:00:34;4.50;;;4.10;;
10335;SDS011;5213;53.548;9.930;2022-10-17T02:03:03;6.70;;;4.00;;
10335;SDS011;5213;53.548;9.930;2022-10-17T02:05:31;5.53;;;4.13;;
10335;SDS011;5213;53.548;9.930;2022-10-17T02:07:57;5.88;;;3.95;;
10335;SDS011;5213;53.548;9.930;2022-10-17T02:10:46;3.83;;;3.53;;
10335;SDS011;5213;53.548;9.930;2022-10-17T02:18:32;8.75;;;3.60;;
10335;SDS011;5213;53.548;9.930;2022-10-17T02:21:02;5.43;;;3.80;;
10335;SDS011;5213;53.548;9.930;2022-10-17T02:23:45;5.13;;;3.85;;
10335;SDS011;5213;53.548;9.930;2022-10-17T02:26:16;8.32;;;4.28;;
10335;SDS011;5213;53.548;9.930;2022-10-17T02:32:09;5.78;;;3.97;;
10335;SDS011;5213;53.548;9.930;2022-10-17T02:34:26;5.50;;;4.10;;
10335;SDS011;5213;53.548;9.930;2022-10-17T02:36:56;6.55;;;3.80;;
10335;SDS011;5213;53.548;9.930;2022-10-17T02:39:23;5.35;;;3.70;;
10335;SDS011;5213;53.548;9.930;2022-10-17T02:41:49;4.10;;;3.70;;
10335;SDS011;5213;53.548;9.930;2022-10-17T02:44:17;4.80;;;3.70;;
10335;SDS011;5213;53.548;9.930;2022-10-17T02:46:44;7.38;;;3.90;;
10335;SDS011;5213;53.548;9.930;2022-10-17T02:49:16;6.30;;;3.80;;
10335;SDS011;5213;53.548;9.930;2022-10-17T02:51:46;4.07;;;3.53;;
10335;SDS011;5213;53.548;9.930;2022-10-17T02:56:46;4.88;;;3.75;;
10335;SDS011;5213;53.548;9.930;2022-10-17T02:59:14;7.05;;;3.20;;
10335;SDS011;5213;53.548;9.930;2022-10-17T03:01:42;6.30;;;3.58;;
10335;SDS011;5213;53.548;9.930;2022-10-17T03:04:09;5.43;;;3.20;;
10335;SDS011;5213;53.548;9.930;2022-10-17T03:06:36;7.78;;;3.30;;
10335;SDS011;5213;53.548;9.930;2022-10-17T03:09:02;4.68;;;3.40;;
10335;SDS011;5213;53.548;9.930;2022-10-17T03:11:28;6.18;;;3.20;;
10335;SDS011;5213;53.548;9.930;2022-10-17T03:13:54;6.68;;;3.30;;
10335;SDS011;5213;53.548;9.930;2022-10-17T03:16:20;4.07;;;3.47;;
10335;SDS011;5213;53.548;9.930;2022-10-17T03:18:46;3.35;;;3.10;;
10335;SDS011;5213;53.548;9.930;2022-10-17T03:21:12;4.40;;;3.17;;
10335;SDS011;5213;53.548;9.930;2022-10-17T03:23:38;4.50;;;3.55;;
10335;SDS011;5213;53.548;9.930;2022-10-17T03:26:05;5.18;;;3.50;;
10335;SDS011;5213;53.548;9.930;2022-10-17T03:28:31;3.70;;;3.38;;
10335;SDS011;5213;53.548;9.930;2022-10-17T03:30:57;5.68;;;3.30;;
10335;SDS011;5213;53.548;9.930;2022-10-17T03:33:23;7.28;;;3.40;;
10335;SDS011;5213;53.548;9.930;2022-10-17T03:35:52;5.55;;;3.38;;
10335;SDS011;5213;53.548;9.930;2022-10-17T03:38:18;3.33;;;3.00;;
10335;SDS011;5213;53.548;9.930;2022-10-17T03:40:44;5.80;;;3.22;;
10335;SDS011;5213;53.548;9.930;2022-10-17T03:43:19;5.65;;;3.10;;
10335;SDS011;5213;53.548;9.930;2022-10-17T03:45:45;3.38;;;3.10;;
10335;SDS011;5213;53.548;9.930;2022-10-17T03:48:11;3.88;;;3.58;;
10335;SDS011;5213;53.548;9.930;2022-10-17T03:50:37;3.35;;;3.00;;
10335;SDS011;5213;53.548;9.930;2022-10-17T03:53:03;6.22;;;3.22;;
10335;SDS011;5213;53.548;9.930;2022-10-17T03:55:29;5.30;;;3.15;;
10335;SDS011;5213;53.548;9.930;2022-10-17T03:57:55;3.47;;;3.10;;
10335;SDS011;5213;53.548;9.930;2022-10-17T04:00:21;3.53;;;3.20;;
10335;SDS011;5213;53.548;9.930;2022-10-17T04:02:47;3.33;;;2.88;;
10335;SDS011;5213;53.548;9.930;2022-10-17T04:05:13;3.30;;;3.00;;
10335;SDS011;5213;53.548;9.930;2022-10-17T04:07:39;3.50;;;3.20;;
10335;SDS011;5213;53.548;9.930;2022-10-17T04:10:05;3.35;;;2.92;;
10335;SDS011;5213;53.548;9.930;2022-10-17T04:12:31;3.40;;;3.10;;
10335;SDS011;5213;53.548;9.930;2022-10-17T04:14:57;4.18;;;3.15;;
10335;SDS011;5213;53.548;9.930;2022-10-17T04:17:23;5.05;;;3.30;;
10335;SDS011;5213;53.548;9.930;2022-10-17T04:19:49;3.17;;;2.95;;
10335;SDS011;5213;53.548;9.930;2022-10-17T04:22:15;3.42;;;3.10;;
10335;SDS011;5213;53.548;9.930;2022-10-17T04:24:41;6.70;;;3.30;;
10335;SDS011;5213;53.548;9.930;2022-10-17T04:27:08;5.13;;;4.00;;
10335;SDS011;5213;53.548;9.930;2022-10-17T04:29:34;4.50;;;4.10;;
10335;SDS011;5213;53.548;9.930;2022-10-17T04:32:00;5.72;;;3.50;;
10335;SDS011;5213;53.548;9.930;2022-10-17T04:34:26;4.47;;;2.97;;
10335;SDS011;5213;53.548;9.930;2022-10-17T04:36:52;4.38;;;3.10;;
10335;SDS011;5213;53.548;9.930;2022-10-17T04:39:18;3.30;;;3.00;;
10335;SDS011;5213;53.548;9.930;2022-10-17T04:41:44;3.35;;;3.15;;
10335;SDS011;5213;53.548;9.930;2022-10-17T04:44:10;3.35;;;3.05;;
10335;SDS011;5213;53.548;9.930;2022-10-17T04:46:36;4.85;;;3.50;;
10335;SDS011;5213;53.548;9.930;2022-10-17T04:49:03;3.92;;;3.20;;
10335;SDS011;5213;53.548;9.930;2022-10-17T04:51:29;3.83;;;3.53;;
10335;SDS011;5213;53.548;9.930;2022-10-17T04:53:55;3.30;;;3.00;;
10335;SDS011;5213;53.548;9.930;2022-10-17T04:56:22;3.40;;;3.15;;
10335;SDS011;5213;53.548;9.930;2022-10-17T04:58:48;3.60;;;3.30;;
10335;SDS011;5213;53.548;9.930;2022-10-17T05:01:18;4.20;;;3.40;;
10335;SDS011;5213;53.548;9.930;2022-10-17T05:03:44;3.28;;;2.83;;
10335;SDS011;5213;53.548;9.930;2022-10-17T05:06:21;3.35;;;3.05;;
10335;SDS011;5213;53.548;9.930;2022-10-17T05:08:47;5.93;;;3.45;;
10335;SDS011;5213;53.548;9.930;2022-10-17T05:11:17;3.83;;;3.50;;
10335;SDS011;5213;53.548;9.930;2022-10-17T05:13:44;3.83;;;3.40;;
10335;SDS011;5213;53.548;9.930;2022-10-17T05:16:14;3.53;;;3.22;;
10335;SDS011;5213;53.548;9.930;2022-10-17T05:18:40;3.58;;;3.28;;
10335;SDS011;5213;53.548;9.930;2022-10-17T05:21:06;5.22;;;3.45;;
10335;SDS011;5213;53.548;9.930;2022-10-17T05:23:32;4.68;;;4.28;;
10335;SDS011;5213;53.548;9.930;2022-10-17T05:25:57;3.72;;;3.50;;
10335;SDS011;5213;53.548;9.930;2022-10-17T05:28:24;3.95;;;3.58;;
10335;SDS011;5213;53.548;9.930;2022-10-17T05:30:50;4.10;;;3.35;;
10335;SDS011;5213;53.548;9.930;2022-10-17T05:33:16;4.07;;;3.67;;
10335;SDS011;5213;53.548;9.930;2022-10-17T05:35:42;3.80;;;3.45;;
10335;SDS011;5213;53.548;9.930;2022-10-17T05:38:07;4.07;;;3.67;;
10335;SDS011;5213;53.548;9.930;2022-10-17T05:40:34;5.65;;;4.07;;
10335;SDS011;5213;53.548;9.930;2022-10-17T05:43:00;12.65;;;4.90;;
10335;SDS011;5213;53.548;9.930;2022-10-17T05:45:25;33.58;;;5.85;;
10335;SDS011;5213;53.548;9.930;2022-10-17T05:47:51;4.38;;;3.83;;
10335;SDS011;5213;53.548;9.930;2022-10-17T05:50:17;4.97;;;3.88;;
10335;SDS011;5213;53.548;9.930;2022-10-17T05:52:45;3.97;;;3.67;;
10335;SDS011;5213;53.548;9.930;2022-10-17T05:55:11;4.35;;;3.88;;
10335;SDS011;5213;53.548;9.930;2022-10-17T05:57:37;4.38;;;3.97;;
10335;SDS011;5213;53.548;9.930;2022-10-17T06:00:04;4.40;;;4.10;;
10335;SDS011;5213;53.548;9.930;2022-10-17T06:02:30;4.28;;;3.85;;
10335;SDS011;5213;53.548;9.930;2022-10-17T06:04:56;4.85;;;4.50;;
10335;SDS011;5213;53.548;9.930;2022-10-17T06:07:25;6.40;;;4.68;;
10335;SDS011;5213;53.548;9.930;2022-10-17T06:09:51;5.35;;;4.40;;
10335;SDS011;5213;53.548;9.930;2022-10-17T06:12:17;7.15;;;4.38;;
10335;SDS011;5213;53.548;9.930;2022-10-17T06:14:43;4.88;;;4.47;;
10335;SDS011;5213;53.548;9.930;2022-10-17T06:17:09;4.53;;;4.22;;
10335;SDS011;5213;53.548;9.930;2022-10-17T06:19:35;4.95;;;4.55;;
10335;SDS011;5213;53.548;9.930;2022-10-17T06:22:01;5.15;;;4.63;;
10335;SDS011;5213;53.548;9.930;2022-10-17T06:24:27;6.45;;;4.40;;
10335;SDS011;5213;53.548;9.930;2022-10-17T06:26:53;6.35;;;4.63;;
10335;SDS011;5213;53.548;9.930;2022-10-17T06:29:19;6.85;;;4.13;;
10335;SDS011;5213;53.548;9.930;2022-10-17T06:31:45;4.82;;;4.43;;
10335;SDS011;5213;53.548;9.930;2022-10-17T06:34:11;4.85;;;3.88;;
10335;SDS011;5213;53.548;9.930;2022-10-17T06:36:37;4.70;;;4.20;;
10335;SDS011;5213;53.548;9.930;2022-10-17T06:39:03;4.95;;;4.47;;
10335;SDS011;5213;53.548;9.930;2022-10-17T06:41:29;7.53;;;4.70;;
10335;SDS011;5213;53.548;9.930;2022-10-17T06:43:55;6.25;;;4.93;;
10335;SDS011;5213;53.548;9.930;2022-10-17T06:46:21;5.90;;;5.13;;
10335;SDS011;5213;53.548;9.930;2022-10-17T06:48:50;6.72;;;4.68;;
10335;SDS011;5213;53.548;9.930;2022-10-17T06:51:16;5.30;;;4.30;;
10335;SDS011;5213;53.548;9.930;2022-10-17T06:53:42;6.38;;;4.93;;
10335;SDS011;5213;53.548;9.930;2022-10-17T06:56:09;4.90;;;4.35;;
10335;SDS011;5213;53.548;9.930;2022-10-17T06:58:37;5.30;;;4.32;;
10335;SDS011;5213;53.548;9.930;2022-10-17T07:01:05;5.65;;;4.50;;
10335;SDS011;5213;53.548;9.930;2022-10-17T07:03:31;4.25;;;3.95;;
10335;SDS011;5213;53.548;9.930;2022-10-17T07:05:57;5.32;;;4.65;;
10335;SDS011;5213;53.548;9.930;2022-10-17T07:08:23;5.20;;;4.10;;
10335;SDS011;5213;53.548;9.930;2022-10-17T07:10:49;6.63;;;3.80;;
10335;SDS011;5213;53.548;9.930;2022-10-17T07:13:16;3.90;;;3.60;;
10335;SDS011;5213;53.548;9.930;2022-10-17T07:15:42;5.13;;;4.15;;
10335;SDS011;5213;53.548;9.930;2022-10-17T07:18:08;4.38;;;4.07;;
10335;SDS011;5213;53.548;9.930;2022-10-17T07:20:34;4.30;;;3.90;;
10335;SDS011;5213;53.548;9.930;2022-10-17T07:23:00;4.60;;;4.20;;
10335;SDS011;5213;53.548;9.930;2022-10-17T07:25:26;5.30;;;4.90;;
10335;SDS011;5213;53.548;9.930;2022-10-17T07:27:53;5.65;;;4.50;;
10335;SDS011;5213;53.548;9.930;2022-10-17T07:30:19;4.55;;;4.15;;
10335;SDS011;5213;53.548;9.930;2022-10-17T07:32:45;6.57;;;4.78;;
10335;SDS011;5213;53.548;9.930;2022-10-17T07:35:12;5.20;;;4.35;;
10335;SDS011;5213;53.548;9.930;2022-10-17T07:37:38;5.32;;;4.10;;
10335;SDS011;5213;53.548;9.930;2022-10-17T07:40:04;5.97;;;3.92;;
10335;SDS011;5213;53.548;9.930;2022-10-17T07:42:37;6.07;;;4.45;;
10335;SDS011;5213;53.548;9.930;2022-10-17T07:45:04;5.50;;;4.60;;
10335;SDS011;5213;53.548;9.930;2022-10-17T07:47:30;5.25;;;4.35;;
10335;SDS011;5213;53.548;9.930;2022-10-17T07:49:59;7.35;;;4.43;;
10335;SDS011;5213;53.548;9.930;2022-10-17T07:52:25;5.32;;;4.82;;
10335;SDS011;5213;53.548;9.930;2022-10-17T07:54:51;5.60;;;4.30;;
10335;SDS011;5213;53.548;9.930;2022-10-17T07:57:17;4.80;;;4.20;;
10335;SDS011;5213;53.548;9.930;2022-10-17T07:59:43;5.97;;;4.10;;
10335;SDS011;5213;53.548;9.930;2022-10-17T08:02:12;6.30;;;4.18;;
10335;SDS011;5213;53.548;9.930;2022-10-17T08:04:43;4.75;;;3.85;;
10335;SDS011;5213;53.548;9.930;2022-10-17T08:07:09;4.47;;;4.05;;
10335;SDS011;5213;53.548;9.930;2022-10-17T08:09:35;5.30;;;3.78;;
10335;SDS011;5213;53.548;9.930;2022-10-17T08:12:01;4.57;;;4.07;;
10335;SDS011;5213;53.548;9.930;2022-10-17T08:14:27;4.40;;;3.53;;
10335;SDS011;5213;53.548;9.930;2022-10-17T08:16:53;7.18;;;3.88;;
10335;SDS011;5213;53.548;9.930;2022-10-17T08:19:19;4.00;;;3.60;;
10335;SDS011;5213;53.548;9.930;2022-10-17T08:21:45;5.20;;;3.53;;
10335;SDS011;5213;53.548;9.930;2022-10-17T08:24:13;3.67;;;3.38;;
10335;SDS011;5213;53.548;9.930;2022-10-17T08:26:39;3.97;;;3.42;;
10335;SDS011;5213;53.548;9.930;2022-10-17T08:29:05;4.03;;;3.72;;
10335;SDS011;5213;53.548;9.930;2022-10-17T08:31:31;4.65;;;3.47;;
10335;SDS011;5213;53.548;9.930;2022-10-17T08:33:57;4.00;;;3.50;;
10335;SDS011;5213;53.548;9.930;2022-10-17T08:36:23;7.72;;;4.13;;
10335;SDS011;5213;53.548;9.930;2022-10-17T08:38:49;5.10;;;3.45;;
10335;SDS011;5213;53.548;9.930;2022-10-17T08:46:30;8.57;;;3.85;;
10335;SDS011;5213;53.548;9.930;2022-10-17T08:48:57;5.22;;;3.60;;
10335;SDS011;5213;53.548;9.930;2022-10-17T08:51:25;4.00;;;3.60;;
10335;SDS011;5213;53.548;9.930;2022-10-17T08:56:19;4.18;;;3.83;;
10335;SDS011;5213;53.548;9.930;2022-10-17T08:58:46;5.00;;;3.80;;
10335;SDS011;5213;53.548;9.930;2022-10-17T09:03:51;7.55;;;4.32;;
10335;SDS011;5213;53.548;9.930;2022-10-17T09:06:20;5.47;;;3.85;;
10335;SDS011;5213;53.548;9.930;2022-10-17T09:21:43;4.28;;;3.08;;
10335;SDS011;5213;53.548;9.930;2022-10-17T09:24:27;4.70;;;3.30;;
10335;SDS011;5213;53.548;9.930;2022-10-17T09:26:56;3.65;;;3.30;;
10335;SDS011;5213;53.548;9.930;2022-10-17T09:29:23;9.43;;;3.50;;
10335;SDS011;5213;53.548;9.930;2022-10-17T09:32:50;5.20;;;3.30;;
10335;SDS011;5213;53.548;9.930;2022-10-17T09:34:45;4.43;;;3.25;;
10335;SDS011;5213;53.548;9.930;2022-10-17T09:37:12;6.43;;;3.30;;
10335;SDS011;5213;53.548;9.930;2022-10-17T09:39:38;5.07;;;3.42;;
10335;SDS011;5213;53.548;9.930;2022-10-17T09:42:05;4.55;;;3.42;;
10335;SDS011;5213;53.548;9.930;2022-10-17T09:44:38;6.65;;;3.80;;
10335;SDS011;5213;53.548;9.930;2022-10-17T09:49:32;4.50;;;3.60;;
10335;SDS011;5213;53.548;9.930;2022-10-17T09:51:59;3.88;;;3.15;;
10335;SDS011;5213;53.548;9.930;2022-10-17T09:54:28;4.93;;;3.45;;
10335;SDS011;5213;53.548;9.930;2022-10-17T09:57:05;4.85;;;3.20;;
10335;SDS011;5213;53.548;9.930;2022-10-17T09:59:35;4.25;;;3.10;;
10335;SDS011;5213;53.548;9.930;2022-10-17T10:02:15;4.10;;;3.10;;
10335;SDS011;5213;53.548;9.930;2022-10-17T10:05:15;6.28;;;3.30;;
10335;SDS011;5213;53.548;9.930;2022-10-17T10:07:36;5.28;;;3.30;;
10335;SDS011;5213;53.548;9.930;2022-10-17T10:10:03;4.93;;;3.67;;
10335;SDS011;5213;53.548;9.930;2022-10-17T10:12:31;4.68;;;3.25;;
10335;SDS011;5213;53.548;9.930;2022-10-17T10:14:58;3.92;;;3.40;;
10335;SDS011;5213;53.548;9.930;2022-10-17T10:17:40;4.93;;;4.43;;
10335;SDS011;5213;53.548;9.930;2022-10-17T10:25:33;6.63;;;3.75;;
10335;SDS011;5213;53.548;9.930;2022-10-17T10:28:00;8.68;;;4.05;;
10335;SDS011;5213;53.548;9.930;2022-10-17T10:30:27;8.25;;;4.00;;
10335;SDS011;5213;53.548;9.930;2022-10-17T10:32:55;7.13;;;4.13;;
10335;SDS011;5213;53.548;9.930;2022-10-17T10:35:30;6.63;;;3.83;;
10335;SDS011;5213;53.548;9.930;2022-10-17T10:37:56;5.60;;;3.75;;
10335;SDS011;5213;53.548;9.930;2022-10-17T10:40:27;6.50;;;3.70;;
10335;SDS011;5213;53.548;9.930;2022-10-17T10:42:56;7.15;;;4.13;;
10335;SDS011;5213;53.548;9.930;2022-10-17T10:45:23;6.60;;;4.20;;
10335;SDS011;5213;53.548;9.930;2022-10-17T10:48:32;4.78;;;3.60;;
10335;SDS011;5213;53.548;9.930;2022-10-17T10:50:39;6.82;;;3.72;;
10335;SDS011;5213;53.548;9.930;2022-10-17T10:53:19;6.57;;;3.60;;
10335;SDS011;5213;53.548;9.930;2022-10-17T10:58:31;5.85;;;3.53;;
10335;SDS011;5213;53.548;9.930;2022-10-17T11:00:59;4.45;;;3.90;;
10335;SDS011;5213;53.548;9.930;2022-10-17T11:06:16;7.25;;;3.80;;
10335;SDS011;5213;53.548;9.930;2022-10-17T11:08:48;6.38;;;3.20;;
10335;SDS011;5213;53.548;9.930;2022-10-17T11:11:16;5.88;;;3.90;;
10335;SDS011;5213;53.548;9.930;2022-10-17T11:13:51;4.25;;;3.55;;
10335;SDS011;5213;53.548;9.930;2022-10-17T11:18:46;5.43;;;3.83;;
10335;SDS011;5213;53.548;9.930;2022-10-17T11:21:17;4.50;;;3.30;;
10335;SDS011;5213;53.548;9.930;2022-10-17T11:23:51;5.50;;;3.47;;
10335;SDS011;5213;53.548;9.930;2022-10-17T11:26:19;3.72;;;3.38;;
10335;SDS011;5213;53.548;9.930;2022-10-17T11:28:51;6.40;;;3.90;;
10335;SDS011;5213;53.548;9.930;2022-10-17T11:31:18;4.30;;;3.67;;
10335;SDS011;5213;53.548;9.930;2022-10-17T11:33:46;4.53;;;3.55;;
10335;SDS011;5213;53.548;9.930;2022-10-17T11:36:13;4.75;;;3.53;;
10335;SDS011;5213;53.548;9.930;2022-10-17T11:38:50;6.18;;;3.45;;
10335;SDS011;5213;53.548;9.930;2022-10-17T11:41:19;6.30;;;4.00;;
10335;SDS011;5213;53.548;9.930;2022-10-17T11:43:49;6.68;;;3.45;;
10335;SDS011;5213;53.548;9.930;2022-10-17T11:46:23;4.20;;;3.65;;
10335;SDS011;5213;53.548;9.930;2022-10-17T11:48:58;8.30;;;4.10;;
10335;SDS011;5213;53.548;9.930;2022-10-17T11:51:28;4.57;;;3.38;;
10335;SDS011;5213;53.548;9.930;2022-10-17T11:54:03;4.32;;;3.45;;
10335;SDS011;5213;53.548;9.930;2022-10-17T12:02:22;7.25;;;3.60;;
10335;SDS011;5213;53.548;9.930;2022-10-17T12:07:45;9.98;;;4.80;;
10335;SDS011;5213;53.548;9.930;2022-10-17T12:13:25;5.78;;;4.55;;
10335;SDS011;5213;53.548;9.930;2022-10-17T12:15:44;11.57;;;4.57;;
10335;SDS011;5213;53.548;9.930;2022-10-17T12:18:14;9.20;;;5.22;;
10335;SDS011;5213;53.548;9.930;2022-10-17T12:20:40;4.82;;;4.30;;
10335;SDS011;5213;53.548;9.930;2022-10-17T12:25:36;7.60;;;5.20;;
10335;SDS011;5213;53.548;9.930;2022-10-17T12:28:13;6.10;;;4.97;;
10335;SDS011;5213;53.548;9.930;2022-10-17T12:30:50;8.63;;;4.80;;
10335;SDS011;5213;53.548;9.930;2022-10-17T12:35:46;5.47;;;4.97;;
10335;SDS011;5213;53.548;9.930;2022-10-17T12:38:14;5.78;;;5.20;;
10335;SDS011;5213;53.548;9.930;2022-10-17T12:48:09;5.78;;;4.70;;
10335;SDS011;5213;53.548;9.930;2022-10-17T12:53:20;5.93;;;5.43;;
10335;SDS011;5213;53.548;9.930;2022-10-17T12:55:49;5.45;;;5.03;;
10335;SDS011;5213;53.548;9.930;2022-10-17T12:58:23;7.70;;;5.40;;
10335;SDS011;5213;53.548;9.930;2022-10-17T13:00:50;5.40;;;4.70;;
10335;SDS011;5213;53.548;9.930;2022-10-17T13:03:18;5.90;;;5.00;;
10335;SDS011;5213;53.548;9.930;2022-10-17T13:05:47;6.10;;;5.35;;
10335;SDS011;5213;53.548;9.930;2022-10-17T13:08:21;6.60;;;5.22;;
10335;SDS011;5213;53.548;9.930;2022-10-17T13:10:48;8.10;;;5.88;;
10335;SDS011;5213;53.548;9.930;2022-10-17T13:13:16;6.47;;;5.60;;
10335;SDS011;5213;53.548;9.930;2022-10-17T13:15:47;7.28;;;5.88;;
10335;SDS011;5213;53.548;9.930;2022-10-17T13:18:16;7.35;;;5.72;;
10335;SDS011;5213;53.548;9.930;2022-10-17T13:20:43;11.50;;;7.35;;
10335;SDS011;5213;53.548;9.930;2022-10-17T13:23:22;10.02;;;7.00;;
10335;SDS011;5213;53.548;9.930;2022-10-17T13:26:00;9.88;;;6.68;;
10335;SDS011;5213;53.548;9.930;2022-10-17T13:28:26;7.35;;;6.72;;
10335;SDS011;5213;53.548;9.930;2022-10-17T13:30:53;8.07;;;7.28;;
10335;SDS011;5213;53.548;9.930;2022-10-17T13:33:31;7.35;;;6.63;;
10335;SDS011;5213;53.548;9.930;2022-10-17T13:35:58;10.63;;;7.13;;
10335;SDS011;5213;53.548;9.930;2022-10-17T13:38:28;7.32;;;6.72;;
10335;SDS011;5213;53.548;9.930;2022-10-17T13:40:56;7.78;;;7.00;;
10335;SDS011;5213;53.548;9.930;2022-10-17T13:43:22;8.30;;;7.50;;
10335;SDS011;5213;53.548;9.930;2022-10-17T13:45:49;11.23;;;8.10;;
10335;SDS011;5213;53.548;9.930;2022-10-17T13:48:21;9.02;;;8.13;;
10335;SDS011;5213;53.548;9.930;2022-10-17T13:50:49;8.82;;;7.97;;
10335;SDS011;5213;53.548;9.930;2022-10-17T13:53:18;8.60;;;7.63;;
10335;SDS011;5213;53.548;9.930;2022-10-17T13:55:51;8.77;;;7.88;;
10335;SDS011;5213;53.548;9.930;2022-10-17T13:58:17;10.85;;;7.93;;
10335;SDS011;5213;53.548;9.930;2022-10-17T14:00:44;8.98;;;7.70;;
10335;SDS011;5213;53.548;9.930;2022-10-17T14:03:10;10.10;;;8.60;;
10335;SDS011;5213;53.548;9.930;2022-10-17T14:08:21;9.55;;;8.45;;
10335;SDS011;5213;53.548;9.930;2022-10-17T14:10:47;8.80;;;7.97;;
10335;SDS011;5213;53.548;9.930;2022-10-17T14:13:18;9.52;;;7.55;;
10335;SDS011;5213;53.548;9.930;2022-10-17T14:15:44;8.85;;;8.00;;
10335;SDS011;5213;53.548;9.930;2022-10-17T14:18:16;8.95;;;8.00;;
10335;SDS011;5213;53.548;9.930;2022-10-17T14:20:46;9.18;;;8.23;;
10335;SDS011;5213;53.548;9.930;2022-10-17T14:28:33;10.75;;;9.63;;
10335;SDS011;5213;53.548;9.930;2022-10-17T14:33:54;9.95;;;9.05;;
10335;SDS011;5213;53.548;9.930;2022-10-17T14:36:28;9.57;;;8.63;;
10335;SDS011;5213;53.548;9.930;2022-10-17T14:38:54;10.52;;;8.13;;
10335;SDS011;5213;53.548;9.930;2022-10-17T14:41:24;11.10;;;8.15;;
10335;SDS011;5213;53.548;9.930;2022-10-17T14:44:03;8.27;;;7.53;;
10335;SDS011;5213;53.548;9.930;2022-10-17T14:46:30;8.90;;;8.00;;
10335;SDS011;5213;53.548;9.930;2022-10-17T14:49:07;9.00;;;8.00;;
10335;SDS011;5213;53.548;9.930;2022-10-17T14:51:40;9.13;;;8.23;;
10335;SDS011;5213;53.548;9.930;2022-10-17T14:54:26;10.05;;;8.35;;
10335;SDS011;5213;53.548;9.930;2022-10-17T14:56:54;9.35;;;8.40;;
10335;SDS011;5213;53.548;9.930;2022-10-17T14:59:20;10.55;;;8.65;;
10335;SDS011;5213;53.548;9.930;2022-10-17T15:02:03;9.70;;;8.70;;
10335;SDS011;5213;53.548;9.930;2022-10-17T15:04:29;9.73;;;8.63;;
10335;SDS011;5213;53.548;9.930;2022-10-17T15:06:55;10.43;;;9.43;;
10335;SDS011;5213;53.548;9.930;2022-10-17T15:09:21;10.65;;;9.55;;
10335;SDS011;5213;53.548;9.930;2022-10-17T15:11:47;11.18;;;10.05;;
10335;SDS011;5213;53.548;9.930;2022-10-17T15:14:13;11.50;;;10.30;;
10335;SDS011;5213;53.548;9.930;2022-10-17T15:16:39;11.57;;;9.50;;
10335;SDS011;5213;53.548;9.930;2022-10-17T15:19:05;11.75;;;10.25;;
10335;SDS011;5213;53.548;9.930;2022-10-17T15:21:31;11.50;;;10.25;;
10335;SDS011;5213;53.548;9.930;2022-10-17T15:23:57;12.30;;;10.75;;
10335;SDS011;5213;53.548;9.930;2022-10-17T15:26:28;11.73;;;10.57;;
10335;SDS011;5213;53.548;9.930;2022-10-17T15:28:54;12.30;;;11.00;;
10335;SDS011;5213;53.548;9.930;2022-10-17T15:31:21;12.60;;;11.15;;
10335;SDS011;5213;53.548;9.930;2022-10-17T15:33:48;12.57;;;11.27;;
10335;SDS011;5213;53.548;9.930;2022-10-17T15:36:17;12.02;;;10.90;;
10335;SDS011;5213;53.548;9.930;2022-10-17T15:38:44;12.50;;;11.00;;
10335;SDS011;5213;53.548;9.930;2022-10-17T15:41:10;12.30;;;11.02;;
10335;SDS011;5213;53.548;9.930;2022-10-17T15:43:36;12.88;;;11.57;;
10335;SDS011;5213;53.548;9.930;2022-10-17T15:46:03;12.27;;;11.07;;
10335;SDS011;5213;53.548;9.930;2022-10-17T15:48:29;13.70;;;11.68;;
10335;SDS011;5213;53.548;9.930;2022-10-17T15:50:56;12.05;;;10.85;;
10335;SDS011;5213;53.548;9.930;2022-10-17T15:53:22;11.48;;;10.20;;
10335;SDS011;5213;53.548;9.930;2022-10-17T15:55:48;12.15;;;10.85;;
10335;SDS011;5213;53.548;9.930;2022-10-17T15:58:15;12.02;;;10.65;;
10335;SDS011;5213;53.548;9.930;2022-10-17T16:00:41;12.13;;;10.40;;
10335;SDS011;5213;53.548;9.930;2022-10-17T16:03:08;11.43;;;10.13;;
10335;SDS011;5213;53.548;9.930;2022-10-17T16:05:34;12.70;;;10.27;;
10335;SDS011;5213;53.548;9.930;2022-10-17T16:08:00;11.45;;;10.35;;
10335;SDS011;5213;53.548;9.930;2022-10-17T16:10:26;11.70;;;10.60;;
10335;SDS011;5213;53.548;9.930;2022-10-17T16:12:52;12.25;;;11.00;;
10335;SDS011;5213;53.548;9.930;2022-10-17T16:15:20;12.05;;;10.70;;
10335;SDS011;5213;53.548;9.930;2022-10-17T16:17:47;12.23;;;10.88;;
10335;SDS011;5213;53.548;9.930;2022-10-17T16:20:13;13.20;;;12.00;;
10335;SDS011;5213;53.548;9.930;2022-10-17T16:22:40;14.18;;;11.55;;
10335;SDS011;5213;53.548;9.930;2022-10-17T16:25:14;12.85;;;11.43;;
10335;SDS011;5213;53.548;9.930;2022-10-17T16:27:43;12.60;;;11.40;;
10335;SDS011;5213;53.548;9.930;2022-10-17T16:30:10;13.73;;;11.52;;
10335;SDS011;5213;53.548;9.930;2022-10-17T16:32:36;13.38;;;12.07;;
10335;SDS011;5213;53.548;9.930;2022-10-17T16:35:02;13.23;;;11.82;;
10335;SDS011;5213;53.548;9.930;2022-10-17T16:37:28;13.77;;;12.02;;
10335;SDS011;5213;53.548;9.930;2022-10-17T16:39:54;12.73;;;11.48;;
10335;SDS011;5213;53.548;9.930;2022-10-17T16:42:20;13.50;;;12.20;;
10335;SDS011;5213;53.548;9.930;2022-10-17T16:44:47;13.80;;;12.32;;
10335;SDS011;5213;53.548;9.930;2022-10-17T16:47:13;14.45;;;12.93;;
10335;SDS011;5213;53.548;9.930;2022-10-17T16:49:39;13.93;;;12.45;;
10335;SDS011;5213;53.548;9.930;2022-10-17T16:52:06;14.07;;;12.65;;
10335;SDS011;5213;53.548;9.930;2022-10-17T16:54:32;13.65;;;12.25;;
10335;SDS011;5213;53.548;9.930;2022-10-17T16:56:59;13.05;;;11.82;;